sensor_id;sensor_type;location;lat;lon;timestamp;temperature;humidity
23156;DHT22;11746;50.876;4.246;2024-01-30T00:00:17;10.90;99.90
23156;DHT22;11746;50.876;4.246;2024-01-30T00:02:43;11.00;99.90
23156;DHT22;11746;50.876;4.246;2024-01-30T00:05:11;11.10;99.90
23156;DHT22;11746;50.876;4.246;2024-01-30T00:07:37;11.00;99.90
23156;DHT22;11746;50.876;4.246;2024-01-30T00:10:03;11.00;99.90
23156;DHT22;11746;50.876;4.246;2024-01-30T00:12:31;11.00;99.90
23156;DHT22;11746;50.876;4.246;2024-01-30T00:14:57;11.00;99.90
23156;DHT22;11746;50.876;4.246;2024-01-30T00:17:23;11.10;99.90
23156;DHT22;11746;50.876;4.246;2024-01-30T00:19:50;11.10;99.90
23156;DHT22;11746;50.876;4.246;2024-01-30T00:22:16;11.10;99.90
23156;DHT22;11746;50.876;4.246;2024-01-30T00:24:42;11.20;99.90
23156;DHT22;11746;50.876;4.246;2024-01-30T00:27:10;11.10;99.90
23156;DHT22;11746;50.876;4.246;2024-01-30T00:29:35;11.10;99.90
23156;DHT22;11746;50.876;4.246;2024-01-30T00:32:01;11.20;99.90
23156;DHT22;11746;50.876;4.246;2024-01-30T00:34:29;11.10;99.90
23156;DHT22;11746;50.876;4.246;2024-01-30T00:36:57;11.20;99.90
23156;DHT22;11746;50.876;4.246;2024-01-30T00:39:22;11.30;99.90
23156;DHT22;11746;50.876;4.246;2024-01-30T00:41:48;11.20;99.90
23156;DHT22;11746;50.876;4.246;2024-01-30T00:44:14;11.30;99.90
23156;DHT22;11746;50.876;4.246;2024-01-30T00:46:42;11.30;99.90
23156;DHT22;11746;50.876;4.246;2024-01-30T00:49:08;11.30;99.90
23156;DHT22;11746;50.876;4.246;2024-01-30T00:51:34;11.20;99.90
23156;DHT22;11746;50.876;4.246;2024-01-30T00:53:59;11.20;99.90
23156;DHT22;11746;50.876;4.246;2024-01-30T00:56:28;11.30;99.90
23156;DHT22;11746;50.876;4.246;2024-01-30T00:58:56;11.30;99.90
23156;DHT22;11746;50.876;4.246;2024-01-30T01:01:24;11.30;99.90
23156;DHT22;11746;50.876;4.246;2024-01-30T01:03:49;11.30;99.90
23156;DHT22;11746;50.876;4.246;2024-01-30T01:06:15;11.20;99.90
23156;DHT22;11746;50.876;4.246;2024-01-30T01:08:41;11.30;99.90
23156;DHT22;11746;50.876;4.246;2024-01-30T01:11:06;11.40;99.90
23156;DHT22;11746;50.876;4.246;2024-01-30T01:13:32;11.50;99.90
23156;DHT22;11746;50.876;4.246;2024-01-30T01:16:00;11.40;99.90
23156;DHT22;11746;50.876;4.246;2024-01-30T01:18:25;11.30;99.90
23156;DHT22;11746;50.876;4.246;2024-01-30T01:20:53;11.20;99.90
23156;DHT22;11746;50.876;4.246;2024-01-30T01:23:19;11.20;99.90
23156;DHT22;11746;50.876;4.246;2024-01-30T01:25:46;11.30;99.90
23156;DHT22;11746;50.876;4.246;2024-01-30T01:28:12;11.30;99.90
23156;DHT22;11746;50.876;4.246;2024-01-30T01:30:38;11.30;99.90
23156;DHT22;11746;50.876;4.246;2024-01-30T01:33:09;11.30;99.90
23156;DHT22;11746;50.876;4.246;2024-01-30T01:35:35;11.30;99.90
23156;DHT22;11746;50.876;4.246;2024-01-30T01:38:03;11.20;99.90
23156;DHT22;11746;50.876;4.246;2024-01-30T01:40:29;11.20;99.90
23156;DHT22;11746;50.876;4.246;2024-01-30T01:42:57;11.20;99.90
23156;DHT22;11746;50.876;4.246;2024-01-30T01:45:25;11.20;99.90
23156;DHT22;11746;50.876;4.246;2024-01-30T01:47:54;11.20;99.90
23156;DHT22;11746;50.876;4.246;2024-01-30T01:50:22;11.30;99.90
23156;DHT22;11746;50.876;4.246;2024-01-30T01:52:48;11.50;99.90
23156;DHT22;11746;50.876;4.246;2024-01-30T01:55:15;11.40;99.90
23156;DHT22;11746;50.876;4.246;2024-01-30T01:57:47;11.40;99.90
23156;DHT22;11746;50.876;4.246;2024-01-30T02:00:15;11.40;99.90
23156;DHT22;11746;50.876;4.246;2024-01-30T02:02:43;11.30;99.90
23156;DHT22;11746;50.876;4.246;2024-01-30T02:05:13;11.30;99.90
23156;DHT22;11746;50.876;4.246;2024-01-30T02:07:41;11.40;99.90
23156;DHT22;11746;50.876;4.246;2024-01-30T02:10:10;11.30;99.90
23156;DHT22;11746;50.876;4.246;2024-01-30T02:12:40;11.30;99.90
23156;DHT22;11746;50.876;4.246;2024-01-30T02:15:08;11.30;99.90
23156;DHT22;11746;50.876;4.246;2024-01-30T02:17:34;11.40;99.90
23156;DHT22;11746;50.876;4.246;2024-01-30T02:20:02;11.30;99.90
23156;DHT22;11746;50.876;4.246;2024-01-30T02:22:29;11.30;99.90
23156;DHT22;11746;50.876;4.246;2024-01-30T02:24:54;11.30;99.90
23156;DHT22;11746;50.876;4.246;2024-01-30T02:27:24;11.30;99.90
23156;DHT22;11746;50.876;4.246;2024-01-30T02:29:50;11.30;99.90
23156;DHT22;11746;50.876;4.246;2024-01-30T02:32:19;11.20;99.90
23156;DHT22;11746;50.876;4.246;2024-01-30T02:34:44;11.30;99.90
23156;DHT22;11746;50.876;4.246;2024-01-30T02:37:10;11.30;99.90
23156;DHT22;11746;50.876;4.246;2024-01-30T02:39:35;11.30;99.90
23156;DHT22;11746;50.876;4.246;2024-01-30T02:42:03;11.30;99.90
23156;DHT22;11746;50.876;4.246;2024-01-30T02:44:31;11.30;99.90
23156;DHT22;11746;50.876;4.246;2024-01-30T02:46:59;11.30;99.90
23156;DHT22;11746;50.876;4.246;2024-01-30T02:49:25;11.40;99.90
23156;DHT22;11746;50.876;4.246;2024-01-30T02:51:52;11.40;99.90
23156;DHT22;11746;50.876;4.246;2024-01-30T02:54:18;11.30;99.90
23156;DHT22;11746;50.876;4.246;2024-01-30T02:56:43;11.40;99.90
23156;DHT22;11746;50.876;4.246;2024-01-30T02:59:11;11.40;99.90
23156;DHT22;11746;50.876;4.246;2024-01-30T03:01:46;11.40;99.90
23156;DHT22;11746;50.876;4.246;2024-01-30T03:04:12;11.50;99.90
23156;DHT22;11746;50.876;4.246;2024-01-30T03:06:45;11.40;99.90
23156;DHT22;11746;50.876;4.246;2024-01-30T03:09:11;11.30;99.90
23156;DHT22;11746;50.876;4.246;2024-01-30T03:11:37;11.40;99.90
23156;DHT22;11746;50.876;4.246;2024-01-30T03:14:04;11.30;99.90
23156;DHT22;11746;50.876;4.246;2024-01-30T03:16:32;11.30;99.90
23156;DHT22;11746;50.876;4.246;2024-01-30T03:19:05;11.30;99.90
23156;DHT22;11746;50.876;4.246;2024-01-30T03:21:30;11.30;99.90
23156;DHT22;11746;50.876;4.246;2024-01-30T03:23:56;11.30;99.90
23156;DHT22;11746;50.876;4.246;2024-01-30T03:26:24;11.30;99.90
23156;DHT22;11746;50.876;4.246;2024-01-30T03:28:49;11.20;99.90
23156;DHT22;11746;50.876;4.246;2024-01-30T03:31:16;11.20;99.90
23156;DHT22;11746;50.876;4.246;2024-01-30T03:33:44;11.20;99.90
23156;DHT22;11746;50.876;4.246;2024-01-30T03:36:11;11.20;99.90
23156;DHT22;11746;50.876;4.246;2024-01-30T03:38:37;11.20;99.90
23156;DHT22;11746;50.876;4.246;2024-01-30T03:41:03;11.10;99.90
23156;DHT22;11746;50.876;4.246;2024-01-30T03:43:28;11.20;99.90
23156;DHT22;11746;50.876;4.246;2024-01-30T03:45:54;11.10;99.90
23156;DHT22;11746;50.876;4.246;2024-01-30T03:48:22;11.20;99.90
23156;DHT22;11746;50.876;4.246;2024-01-30T03:50:48;11.20;99.90
23156;DHT22;11746;50.876;4.246;2024-01-30T03:53:17;11.20;99.90
23156;DHT22;11746;50.876;4.246;2024-01-30T03:55:42;11.30;99.90
23156;DHT22;11746;50.876;4.246;2024-01-30T03:58:10;11.20;99.90
23156;DHT22;11746;50.876;4.246;2024-01-30T04:00:36;11.10;99.90
23156;DHT22;11746;50.876;4.246;2024-01-30T04:03:04;11.10;99.90
23156;DHT22;11746;50.876;4.246;2024-01-30T04:05:32;11.10;99.90
23156;DHT22;11746;50.876;4.246;2024-01-30T04:07:58;11.10;99.90
23156;DHT22;11746;50.876;4.246;2024-01-30T04:10:24;11.00;99.90
23156;DHT22;11746;50.876;4.246;2024-01-30T04:12:52;11.10;99.90
23156;DHT22;11746;50.876;4.246;2024-01-30T04:15:19;11.00;99.90
23156;DHT22;11746;50.876;4.246;2024-01-30T04:17:45;11.10;99.90
23156;DHT22;11746;50.876;4.246;2024-01-30T04:20:14;10.90;99.90
23156;DHT22;11746;50.876;4.246;2024-01-30T04:22:44;10.90;99.90
23156;DHT22;11746;50.876;4.246;2024-01-30T04:25:10;10.90;99.90
23156;DHT22;11746;50.876;4.246;2024-01-30T04:27:36;11.00;99.90
23156;DHT22;11746;50.876;4.246;2024-01-30T04:30:01;10.90;99.90
23156;DHT22;11746;50.876;4.246;2024-01-30T04:32:27;11.00;99.90
23156;DHT22;11746;50.876;4.246;2024-01-30T04:34:55;10.90;99.90
23156;DHT22;11746;50.876;4.246;2024-01-30T04:37:23;10.90;99.90
23156;DHT22;11746;50.876;4.246;2024-01-30T04:39:49;10.90;99.90
23156;DHT22;11746;50.876;4.246;2024-01-30T04:42:17;10.80;99.90
23156;DHT22;11746;50.876;4.246;2024-01-30T04:44:45;10.90;99.90
23156;DHT22;11746;50.876;4.246;2024-01-30T04:47:11;10.90;99.90
23156;DHT22;11746;50.876;4.246;2024-01-30T04:49:38;10.90;99.90
23156;DHT22;11746;50.876;4.246;2024-01-30T04:52:05;10.90;99.90
23156;DHT22;11746;50.876;4.246;2024-01-30T04:54:31;10.90;99.90
23156;DHT22;11746;50.876;4.246;2024-01-30T04:56:57;10.90;99.90
23156;DHT22;11746;50.876;4.246;2024-01-30T04:59:22;10.90;99.90
23156;DHT22;11746;50.876;4.246;2024-01-30T05:01:48;10.90;99.90
23156;DHT22;11746;50.876;4.246;2024-01-30T05:04:13;10.90;99.90
23156;DHT22;11746;50.876;4.246;2024-01-30T05:06:39;11.00;99.90
23156;DHT22;11746;50.876;4.246;2024-01-30T05:09:04;11.00;99.90
23156;DHT22;11746;50.876;4.246;2024-01-30T05:11:30;11.00;99.90
23156;DHT22;11746;50.876;4.246;2024-01-30T05:13:56;11.10;99.90
23156;DHT22;11746;50.876;4.246;2024-01-30T05:16:22;11.00;99.90
23156;DHT22;11746;50.876;4.246;2024-01-30T05:18:50;10.90;99.90
23156;DHT22;11746;50.876;4.246;2024-01-30T05:21:18;10.90;99.90
23156;DHT22;11746;50.876;4.246;2024-01-30T05:23:44;10.90;99.90
23156;DHT22;11746;50.876;4.246;2024-01-30T05:26:10;11.00;99.90
23156;DHT22;11746;50.876;4.246;2024-01-30T05:28:35;11.00;99.90
23156;DHT22;11746;50.876;4.246;2024-01-30T05:31:05;10.90;99.90
23156;DHT22;11746;50.876;4.246;2024-01-30T05:33:31;11.00;99.90
23156;DHT22;11746;50.876;4.246;2024-01-30T05:35:59;10.90;99.90
23156;DHT22;11746;50.876;4.246;2024-01-30T05:38:24;11.10;99.90
23156;DHT22;11746;50.876;4.246;2024-01-30T05:40:52;11.00;99.90
23156;DHT22;11746;50.876;4.246;2024-01-30T05:43:18;10.90;99.90
23156;DHT22;11746;50.876;4.246;2024-01-30T05:45:43;11.00;99.90
23156;DHT22;11746;50.876;4.246;2024-01-30T05:48:10;11.10;99.90
23156;DHT22;11746;50.876;4.246;2024-01-30T05:50:35;11.00;99.90
23156;DHT22;11746;50.876;4.246;2024-01-30T05:53:01;11.00;99.90
23156;DHT22;11746;50.876;4.246;2024-01-30T05:55:26;11.00;99.90
23156;DHT22;11746;50.876;4.246;2024-01-30T05:57:52;11.00;99.90
23156;DHT22;11746;50.876;4.246;2024-01-30T06:00:18;10.90;99.90
23156;DHT22;11746;50.876;4.246;2024-01-30T06:02:44;10.90;99.90
23156;DHT22;11746;50.876;4.246;2024-01-30T06:05:10;11.00;99.90
23156;DHT22;11746;50.876;4.246;2024-01-30T06:07:35;10.90;99.90
23156;DHT22;11746;50.876;4.246;2024-01-30T06:10:01;10.90;99.90
23156;DHT22;11746;50.876;4.246;2024-01-30T06:12:27;10.90;99.90
23156;DHT22;11746;50.876;4.246;2024-01-30T06:14:53;11.00;99.90
23156;DHT22;11746;50.876;4.246;2024-01-30T06:17:25;11.00;99.90
23156;DHT22;11746;50.876;4.246;2024-01-30T06:19:50;10.90;99.90
23156;DHT22;11746;50.876;4.246;2024-01-30T06:22:18;10.90;99.90
23156;DHT22;11746;50.876;4.246;2024-01-30T06:24:46;10.90;99.90
23156;DHT22;11746;50.876;4.246;2024-01-30T06:27:15;10.90;99.90
23156;DHT22;11746;50.876;4.246;2024-01-30T06:29:43;10.90;99.90
23156;DHT22;11746;50.876;4.246;2024-01-30T06:32:09;10.80;99.90
23156;DHT22;11746;50.876;4.246;2024-01-30T06:34:35;10.90;99.90
23156;DHT22;11746;50.876;4.246;2024-01-30T06:37:03;10.80;99.90
23156;DHT22;11746;50.876;4.246;2024-01-30T06:39:31;10.80;99.90
23156;DHT22;11746;50.876;4.246;2024-01-30T06:41:57;10.80;99.90
23156;DHT22;11746;50.876;4.246;2024-01-30T06:44:22;10.80;99.90
23156;DHT22;11746;50.876;4.246;2024-01-30T06:46:48;10.80;99.90
23156;DHT22;11746;50.876;4.246;2024-01-30T06:49:13;11.00;99.90
23156;DHT22;11746;50.876;4.246;2024-01-30T06:51:39;11.00;99.90
23156;DHT22;11746;50.876;4.246;2024-01-30T06:54:07;11.00;99.90
23156;DHT22;11746;50.876;4.246;2024-01-30T06:56:32;11.00;99.90
23156;DHT22;11746;50.876;4.246;2024-01-30T06:58:58;10.90;99.90
23156;DHT22;11746;50.876;4.246;2024-01-30T07:01:32;10.90;99.90
23156;DHT22;11746;50.876;4.246;2024-01-30T07:03:58;10.80;99.90
23156;DHT22;11746;50.876;4.246;2024-01-30T07:06:26;10.90;99.90
23156;DHT22;11746;50.876;4.246;2024-01-30T07:08:54;10.90;99.90
23156;DHT22;11746;50.876;4.246;2024-01-30T07:11:20;10.90;99.90
23156;DHT22;11746;50.876;4.246;2024-01-30T07:13:50;10.90;99.90
23156;DHT22;11746;50.876;4.246;2024-01-30T07:16:19;10.90;99.90
23156;DHT22;11746;50.876;4.246;2024-01-30T07:18:44;10.80;99.90
23156;DHT22;11746;50.876;4.246;2024-01-30T07:21:11;10.80;99.90
23156;DHT22;11746;50.876;4.246;2024-01-30T07:23:36;10.80;99.90
23156;DHT22;11746;50.876;4.246;2024-01-30T07:26:04;10.80;99.90
23156;DHT22;11746;50.876;4.246;2024-01-30T07:28:30;10.90;99.90
23156;DHT22;11746;50.876;4.246;2024-01-30T07:30:58;10.90;99.90
23156;DHT22;11746;50.876;4.246;2024-01-30T07:33:23;10.80;99.90
23156;DHT22;11746;50.876;4.246;2024-01-30T07:35:52;10.90;99.90
23156;DHT22;11746;50.876;4.246;2024-01-30T07:38:20;10.70;99.90
23156;DHT22;11746;50.876;4.246;2024-01-30T07:40:49;10.70;99.90
23156;DHT22;11746;50.876;4.246;2024-01-30T07:43:18;10.80;99.90
23156;DHT22;11746;50.876;4.246;2024-01-30T07:45:45;10.80;99.90
23156;DHT22;11746;50.876;4.246;2024-01-30T07:48:11;10.90;99.90
23156;DHT22;11746;50.876;4.246;2024-01-30T07:50:39;10.90;99.90
23156;DHT22;11746;50.876;4.246;2024-01-30T07:53:05;10.90;99.90
23156;DHT22;11746;50.876;4.246;2024-01-30T07:55:33;10.90;99.90
23156;DHT22;11746;50.876;4.246;2024-01-30T07:57:58;10.90;99.90
23156;DHT22;11746;50.876;4.246;2024-01-30T08:00:24;10.80;99.90
23156;DHT22;11746;50.876;4.246;2024-01-30T08:02:50;10.80;99.90
23156;DHT22;11746;50.876;4.246;2024-01-30T08:05:19;10.90;99.90
23156;DHT22;11746;50.876;4.246;2024-01-30T08:07:47;10.90;99.90
23156;DHT22;11746;50.876;4.246;2024-01-30T08:10:14;11.00;99.90
23156;DHT22;11746;50.876;4.246;2024-01-30T08:12:43;10.90;99.90
23156;DHT22;11746;50.876;4.246;2024-01-30T08:15:09;11.00;99.90
23156;DHT22;11746;50.876;4.246;2024-01-30T08:17:35;11.00;99.90
23156;DHT22;11746;50.876;4.246;2024-01-30T08:20:01;11.00;99.90
23156;DHT22;11746;50.876;4.246;2024-01-30T08:22:26;11.00;99.90
23156;DHT22;11746;50.876;4.246;2024-01-30T08:24:52;11.10;99.90
23156;DHT22;11746;50.876;4.246;2024-01-30T08:27:20;11.00;99.90
23156;DHT22;11746;50.876;4.246;2024-01-30T08:29:45;11.00;99.90
23156;DHT22;11746;50.876;4.246;2024-01-30T08:32:16;11.00;99.90
23156;DHT22;11746;50.876;4.246;2024-01-30T08:34:44;11.10;99.90
23156;DHT22;11746;50.876;4.246;2024-01-30T08:37:09;11.10;99.90
23156;DHT22;11746;50.876;4.246;2024-01-30T08:39:35;11.20;99.90
23156;DHT22;11746;50.876;4.246;2024-01-30T08:42:01;11.10;99.90
23156;DHT22;11746;50.876;4.246;2024-01-30T08:44:26;11.10;99.90
23156;DHT22;11746;50.876;4.246;2024-01-30T08:46:52;11.10;99.90
23156;DHT22;11746;50.876;4.246;2024-01-30T08:49:20;11.10;99.90
23156;DHT22;11746;50.876;4.246;2024-01-30T08:51:45;11.00;99.90
23156;DHT22;11746;50.876;4.246;2024-01-30T08:54:13;11.10;99.90
23156;DHT22;11746;50.876;4.246;2024-01-30T08:56:39;11.10;99.90
23156;DHT22;11746;50.876;4.246;2024-01-30T08:59:04;11.10;99.90
23156;DHT22;11746;50.876;4.246;2024-01-30T09:01:32;11.10;99.90
23156;DHT22;11746;50.876;4.246;2024-01-30T09:03:58;11.10;99.90
23156;DHT22;11746;50.876;4.246;2024-01-30T09:06:23;11.00;99.90
23156;DHT22;11746;50.876;4.246;2024-01-30T09:08:51;11.10;99.90
23156;DHT22;11746;50.876;4.246;2024-01-30T09:11:17;11.10;99.90
23156;DHT22;11746;50.876;4.246;2024-01-30T09:13:45;11.10;99.90
23156;DHT22;11746;50.876;4.246;2024-01-30T09:16:10;11.10;99.90
23156;DHT22;11746;50.876;4.246;2024-01-30T09:18:36;11.10;99.90
23156;DHT22;11746;50.876;4.246;2024-01-30T09:21:02;11.10;99.90
23156;DHT22;11746;50.876;4.246;2024-01-30T09:23:28;11.00;99.90
23156;DHT22;11746;50.876;4.246;2024-01-30T09:25:56;11.00;99.90
23156;DHT22;11746;50.876;4.246;2024-01-30T09:28:24;11.00;99.90
23156;DHT22;11746;50.876;4.246;2024-01-30T09:30:52;11.00;99.90
23156;DHT22;11746;50.876;4.246;2024-01-30T09:33:22;11.00;99.90
23156;DHT22;11746;50.876;4.246;2024-01-30T09:35:48;11.00;99.90
23156;DHT22;11746;50.876;4.246;2024-01-30T09:38:14;11.00;99.90
23156;DHT22;11746;50.876;4.246;2024-01-30T09:40:39;11.00;99.90
23156;DHT22;11746;50.876;4.246;2024-01-30T09:43:11;11.00;99.90
23156;DHT22;11746;50.876;4.246;2024-01-30T09:45:42;11.00;99.90
23156;DHT22;11746;50.876;4.246;2024-01-30T09:48:12;11.10;99.90
23156;DHT22;11746;50.876;4.246;2024-01-30T09:50:40;11.20;99.90
23156;DHT22;11746;50.876;4.246;2024-01-30T09:53:09;11.10;99.90
23156;DHT22;11746;50.876;4.246;2024-01-30T09:55:36;11.20;99.90
23156;DHT22;11746;50.876;4.246;2024-01-30T09:58:05;11.10;99.90
23156;DHT22;11746;50.876;4.246;2024-01-30T10:00:35;11.10;99.90
23156;DHT22;11746;50.876;4.246;2024-01-30T10:03:01;11.10;99.90
23156;DHT22;11746;50.876;4.246;2024-01-30T10:05:27;11.10;99.90
23156;DHT22;11746;50.876;4.246;2024-01-30T10:07:54;11.00;99.90
23156;DHT22;11746;50.876;4.246;2024-01-30T10:10:25;11.10;99.90
23156;DHT22;11746;50.876;4.246;2024-01-30T10:12:51;11.10;99.90
23156;DHT22;11746;50.876;4.246;2024-01-30T10:15:20;11.20;99.90
23156;DHT22;11746;50.876;4.246;2024-01-30T10:17:45;11.20;99.90
23156;DHT22;11746;50.876;4.246;2024-01-30T10:20:12;11.30;99.90
23156;DHT22;11746;50.876;4.246;2024-01-30T10:22:40;11.20;99.90
23156;DHT22;11746;50.876;4.246;2024-01-30T10:25:06;11.20;99.90
23156;DHT22;11746;50.876;4.246;2024-01-30T10:27:33;11.20;99.90
23156;DHT22;11746;50.876;4.246;2024-01-30T10:30:01;11.20;99.90
23156;DHT22;11746;50.876;4.246;2024-01-30T10:32:27;11.10;99.90
23156;DHT22;11746;50.876;4.246;2024-01-30T10:34:55;11.00;99.90
23156;DHT22;11746;50.876;4.246;2024-01-30T10:37:25;11.00;99.90
23156;DHT22;11746;50.876;4.246;2024-01-30T10:39:53;11.00;99.90
23156;DHT22;11746;50.876;4.246;2024-01-30T10:42:26;11.00;99.90
23156;DHT22;11746;50.876;4.246;2024-01-30T10:45:02;11.10;99.90
23156;DHT22;11746;50.876;4.246;2024-01-30T10:47:32;11.10;99.90
23156;DHT22;11746;50.876;4.246;2024-01-30T10:49:59;11.10;99.90
23156;DHT22;11746;50.876;4.246;2024-01-30T10:52:26;11.00;99.90
23156;DHT22;11746;50.876;4.246;2024-01-30T10:54:54;11.00;99.90
23156;DHT22;11746;50.876;4.246;2024-01-30T10:57:23;10.90;99.90
23156;DHT22;11746;50.876;4.246;2024-01-30T10:59:49;10.90;99.90
23156;DHT22;11746;50.876;4.246;2024-01-30T11:02:15;10.80;99.90
23156;DHT22;11746;50.876;4.246;2024-01-30T11:04:45;10.80;99.90
23156;DHT22;11746;50.876;4.246;2024-01-30T11:07:18;10.80;99.90
23156;DHT22;11746;50.876;4.246;2024-01-30T11:12:16;10.60;99.90
23156;DHT22;11746;50.876;4.246;2024-01-30T11:14:41;10.70;99.90
23156;DHT22;11746;50.876;4.246;2024-01-30T11:17:09;10.70;99.90
23156;DHT22;11746;50.876;4.246;2024-01-30T11:19:38;10.70;99.90
23156;DHT22;11746;50.876;4.246;2024-01-30T11:22:10;10.70;99.90
23156;DHT22;11746;50.876;4.246;2024-01-30T11:24:40;10.70;99.90
23156;DHT22;11746;50.876;4.246;2024-01-30T11:27:09;10.70;99.90
23156;DHT22;11746;50.876;4.246;2024-01-30T11:29:37;10.70;99.90
23156;DHT22;11746;50.876;4.246;2024-01-30T11:32:05;10.70;99.90
23156;DHT22;11746;50.876;4.246;2024-01-30T11:34:33;10.70;99.90
23156;DHT22;11746;50.876;4.246;2024-01-30T11:37:11;10.70;99.90
23156;DHT22;11746;50.876;4.246;2024-01-30T11:39:37;10.70;99.90
23156;DHT22;11746;50.876;4.246;2024-01-30T11:42:04;10.80;99.90
23156;DHT22;11746;50.876;4.246;2024-01-30T11:44:30;10.80;99.90
23156;DHT22;11746;50.876;4.246;2024-01-30T11:46:56;10.70;99.90
23156;DHT22;11746;50.876;4.246;2024-01-30T11:49:22;10.70;99.90
23156;DHT22;11746;50.876;4.246;2024-01-30T11:51:48;10.70;99.90
23156;DHT22;11746;50.876;4.246;2024-01-30T11:54:17;10.80;99.90
23156;DHT22;11746;50.876;4.246;2024-01-30T11:56:43;10.80;99.90
23156;DHT22;11746;50.876;4.246;2024-01-30T11:59:11;10.90;99.90
23156;DHT22;11746;50.876;4.246;2024-01-30T12:01:39;10.90;99.90
23156;DHT22;11746;50.876;4.246;2024-01-30T12:04:08;10.90;99.90
23156;DHT22;11746;50.876;4.246;2024-01-30T12:06:34;10.90;99.90
23156;DHT22;11746;50.876;4.246;2024-01-30T12:09:02;10.90;99.90
23156;DHT22;11746;50.876;4.246;2024-01-30T12:11:33;10.90;99.90
23156;DHT22;11746;50.876;4.246;2024-01-30T12:14:11;11.00;99.90
23156;DHT22;11746;50.876;4.246;2024-01-30T12:16:37;10.90;99.90
23156;DHT22;11746;50.876;4.246;2024-01-30T12:19:05;10.90;99.90
23156;DHT22;11746;50.876;4.246;2024-01-30T12:21:30;10.90;99.90
23156;DHT22;11746;50.876;4.246;2024-01-30T12:23:59;10.80;99.90
23156;DHT22;11746;50.876;4.246;2024-01-30T12:26:25;10.80;99.90
23156;DHT22;11746;50.876;4.246;2024-01-30T12:28:54;10.80;99.90
23156;DHT22;11746;50.876;4.246;2024-01-30T12:31:32;10.70;99.90
23156;DHT22;11746;50.876;4.246;2024-01-30T12:33:59;10.50;99.90
23156;DHT22;11746;50.876;4.246;2024-01-30T12:36:25;10.50;99.90
23156;DHT22;11746;50.876;4.246;2024-01-30T12:38:53;10.50;99.90
23156;DHT22;11746;50.876;4.246;2024-01-30T12:41:20;10.50;99.90
23156;DHT22;11746;50.876;4.246;2024-01-30T12:43:45;10.50;99.90
23156;DHT22;11746;50.876;4.246;2024-01-30T12:46:13;10.60;99.90
23156;DHT22;11746;50.876;4.246;2024-01-30T12:48:41;10.60;99.90
23156;DHT22;11746;50.876;4.246;2024-01-30T12:51:09;10.60;99.90
23156;DHT22;11746;50.876;4.246;2024-01-30T12:53:34;10.70;99.90
23156;DHT22;11746;50.876;4.246;2024-01-30T12:56:03;10.90;99.90
23156;DHT22;11746;50.876;4.246;2024-01-30T12:58:28;11.00;99.90
23156;DHT22;11746;50.876;4.246;2024-01-30T13:00:54;11.10;99.90
23156;DHT22;11746;50.876;4.246;2024-01-30T13:03:22;11.30;99.90
23156;DHT22;11746;50.876;4.246;2024-01-30T13:05:50;11.50;99.90
23156;DHT22;11746;50.876;4.246;2024-01-30T13:08:16;11.60;99.90
23156;DHT22;11746;50.876;4.246;2024-01-30T13:10:41;11.70;99.90
23156;DHT22;11746;50.876;4.246;2024-01-30T13:13:07;11.90;99.90
23156;DHT22;11746;50.876;4.246;2024-01-30T13:15:37;11.90;99.90
23156;DHT22;11746;50.876;4.246;2024-01-30T13:18:03;12.00;99.90
23156;DHT22;11746;50.876;4.246;2024-01-30T13:20:28;11.90;99.90
23156;DHT22;11746;50.876;4.246;2024-01-30T13:22:54;12.00;99.90
23156;DHT22;11746;50.876;4.246;2024-01-30T13:25:20;11.90;99.90
23156;DHT22;11746;50.876;4.246;2024-01-30T13:27:45;11.60;99.90
23156;DHT22;11746;50.876;4.246;2024-01-30T13:30:11;11.30;99.90
23156;DHT22;11746;50.876;4.246;2024-01-30T13:32:37;11.20;99.90
23156;DHT22;11746;50.876;4.246;2024-01-30T13:35:03;11.10;99.90
23156;DHT22;11746;50.876;4.246;2024-01-30T13:37:29;11.10;99.90
23156;DHT22;11746;50.876;4.246;2024-01-30T13:39:57;11.00;99.90
23156;DHT22;11746;50.876;4.246;2024-01-30T13:42:25;10.90;99.90
23156;DHT22;11746;50.876;4.246;2024-01-30T13:44:53;10.80;99.90
23156;DHT22;11746;50.876;4.246;2024-01-30T13:47:19;10.80;99.90
23156;DHT22;11746;50.876;4.246;2024-01-30T13:49:47;10.50;99.90
23156;DHT22;11746;50.876;4.246;2024-01-30T13:52:13;10.40;99.90
23156;DHT22;11746;50.876;4.246;2024-01-30T13:54:38;10.40;99.90
23156;DHT22;11746;50.876;4.246;2024-01-30T13:57:06;10.30;99.90
23156;DHT22;11746;50.876;4.246;2024-01-30T13:59:34;10.30;99.90
23156;DHT22;11746;50.876;4.246;2024-01-30T14:01:59;10.30;99.90
23156;DHT22;11746;50.876;4.246;2024-01-30T14:04:25;10.30;99.90
23156;DHT22;11746;50.876;4.246;2024-01-30T14:06:50;10.40;99.90
23156;DHT22;11746;50.876;4.246;2024-01-30T14:09:16;10.30;99.90
23156;DHT22;11746;50.876;4.246;2024-01-30T14:11:46;10.30;99.90
23156;DHT22;11746;50.876;4.246;2024-01-30T14:14:12;10.30;99.90
23156;DHT22;11746;50.876;4.246;2024-01-30T14:16:38;10.30;99.90
23156;DHT22;11746;50.876;4.246;2024-01-30T14:19:03;10.20;99.90
23156;DHT22;11746;50.876;4.246;2024-01-30T14:21:29;10.00;99.90
23156;DHT22;11746;50.876;4.246;2024-01-30T14:23:57;9.80;99.90
23156;DHT22;11746;50.876;4.246;2024-01-30T14:26:23;9.80;99.90
23156;DHT22;11746;50.876;4.246;2024-01-30T14:28:48;9.80;99.90
23156;DHT22;11746;50.876;4.246;2024-01-30T14:31:14;9.90;99.90
23156;DHT22;11746;50.876;4.246;2024-01-30T14:33:43;9.80;99.90
23156;DHT22;11746;50.876;4.246;2024-01-30T14:36:09;9.80;99.90
23156;DHT22;11746;50.876;4.246;2024-01-30T14:38:35;9.70;99.90
23156;DHT22;11746;50.876;4.246;2024-01-30T14:41:00;9.70;99.90
23156;DHT22;11746;50.876;4.246;2024-01-30T14:43:26;9.70;99.90
23156;DHT22;11746;50.876;4.246;2024-01-30T14:45:51;9.70;99.90
23156;DHT22;11746;50.876;4.246;2024-01-30T14:48:17;9.70;99.90
23156;DHT22;11746;50.876;4.246;2024-01-30T14:50:43;9.70;99.90
23156;DHT22;11746;50.876;4.246;2024-01-30T14:53:09;9.60;99.90
23156;DHT22;11746;50.876;4.246;2024-01-30T14:55:34;9.60;99.90
23156;DHT22;11746;50.876;4.246;2024-01-30T14:58:02;9.60;99.90
23156;DHT22;11746;50.876;4.246;2024-01-30T15:00:28;9.60;99.90
23156;DHT22;11746;50.876;4.246;2024-01-30T15:02:54;9.50;99.90
23156;DHT22;11746;50.876;4.246;2024-01-30T15:05:21;9.60;99.90
23156;DHT22;11746;50.876;4.246;2024-01-30T15:07:49;9.60;99.90
23156;DHT22;11746;50.876;4.246;2024-01-30T15:10:15;9.60;99.90
23156;DHT22;11746;50.876;4.246;2024-01-30T15:12:40;9.60;99.90
23156;DHT22;11746;50.876;4.246;2024-01-30T15:15:09;9.50;99.90
23156;DHT22;11746;50.876;4.246;2024-01-30T15:17:35;9.60;99.90
23156;DHT22;11746;50.876;4.246;2024-01-30T15:20:03;9.70;99.90
23156;DHT22;11746;50.876;4.246;2024-01-30T15:22:29;9.70;99.90
23156;DHT22;11746;50.876;4.246;2024-01-30T15:24:55;9.70;99.90
23156;DHT22;11746;50.876;4.246;2024-01-30T15:27:20;9.70;99.90
23156;DHT22;11746;50.876;4.246;2024-01-30T15:29:46;9.70;99.90
23156;DHT22;11746;50.876;4.246;2024-01-30T15:32:14;9.70;99.90